createdAt,value
2018-09-11T00:48:17.490Z,2.20
2018-09-11T00:53:20.829Z,1.77
2018-09-11T00:58:24.153Z,2.20
2018-09-11T02:35:29.238Z,2.47
2018-09-11T02:40:32.563Z,1.63
2018-09-11T03:48:52.570Z,2.37
2018-09-11T03:53:55.926Z,2.23
2018-09-11T03:59:00.213Z,2.50
2018-09-11T04:32:48.582Z,2.00
2018-09-11T04:37:51.903Z,2.67
2018-09-11T04:42:55.252Z,2.73
2018-09-11T04:47:58.656Z,2.00
2018-09-11T04:53:03.295Z,2.67
2018-09-11T04:58:06.633Z,2.80
2018-09-11T05:03:09.970Z,3.00
2018-09-11T05:08:13.303Z,2.80
2018-09-11T05:13:16.637Z,2.70
2018-09-11T05:18:19.985Z,2.00
2018-09-11T05:23:23.327Z,3.50
2018-09-11T05:28:26.650Z,3.07
2018-09-11T05:33:29.983Z,2.30
2018-09-11T05:38:33.319Z,2.60
2018-09-11T05:43:37.406Z,2.13
2018-09-11T05:48:40.734Z,2.33
2018-09-11T05:53:44.072Z,2.50
2018-09-11T05:58:48.169Z,2.70
2018-09-11T06:03:51.506Z,2.30
2018-09-11T06:08:55.600Z,2.20
2018-09-11T06:13:58.930Z,2.03
2018-09-11T06:19:02.254Z,2.37
2018-09-11T06:24:05.576Z,2.30
2018-09-11T06:29:09.687Z,2.60
2018-09-11T07:02:58.692Z,2.43
2018-09-11T07:08:02.019Z,3.80
2018-09-11T07:13:05.350Z,2.63
2018-09-11T08:04:11.378Z,3.00
2018-09-11T08:09:14.706Z,2.37
2018-09-11T08:14:18.036Z,3.20
2018-09-11T09:05:24.423Z,2.70
2018-09-11T09:10:27.744Z,2.40
2018-09-11T10:01:30.678Z,2.10
2018-09-11T10:06:34.003Z,2.33
2018-09-11T11:02:48.776Z,2.47
2018-09-11T11:07:52.107Z,2.53
2018-09-11T11:12:55.437Z,2.70
2018-09-11T12:03:59.036Z,2.83
2018-09-11T12:09:02.367Z,2.10
2018-09-11T12:14:06.456Z,2.80
2018-09-11T13:05:11.408Z,2.57
2018-09-11T13:10:14.755Z,2.07
2018-09-11T14:01:18.610Z,2.90
2018-09-11T14:06:21.934Z,2.20
2018-09-11T14:11:25.269Z,2.20
2018-09-11T14:50:54.656Z,2.60
2018-09-11T14:55:58.766Z,2.50
2018-09-11T15:35:33.447Z,2.10
2018-09-11T15:40:36.770Z,2.20
2018-09-11T15:45:40.103Z,2.17
2018-09-11T15:50:44.211Z,1.75
2018-09-11T15:55:47.560Z,2.37
2018-09-11T16:00:51.654Z,2.20
2018-09-11T16:05:54.980Z,2.37
2018-09-11T16:10:58.313Z,1.90
2018-09-11T16:16:02.404Z,2.30
2018-09-11T16:21:05.751Z,2.83
2018-09-11T16:26:09.830Z,1.92
2018-09-11T16:31:13.318Z,1.65
2018-09-11T16:42:17.430Z,2.15
2018-09-11T16:47:20.758Z,2.40
2018-09-11T16:52:24.344Z,2.05
2018-09-11T16:57:28.076Z,2.05
2018-09-11T17:02:31.591Z,2.10
2018-09-11T17:07:35.183Z,2.25
2018-09-11T17:12:38.519Z,2.35
2018-09-11T17:17:41.856Z,2.05
2018-09-11T17:22:45.192Z,2.60
2018-09-11T17:27:49.296Z,2.60
2018-09-11T17:32:52.656Z,2.25
2018-09-11T17:37:55.983Z,2.20
2018-09-11T17:43:00.142Z,2.40
2018-09-11T17:48:03.850Z,1.58
2018-09-11T17:53:07.187Z,1.77
2018-09-11T17:58:10.513Z,1.62
2018-09-11T18:03:13.843Z,1.83
2018-09-11T18:08:18.735Z,1.40
2018-09-11T18:13:22.086Z,1.97
2018-09-11T18:18:25.415Z,1.83
2018-09-11T18:23:29.526Z,2.50
2018-09-11T18:28:32.904Z,5.13
2018-09-11T18:33:36.280Z,4.72
2018-09-11T18:38:40.574Z,4.00
2018-09-11T18:43:44.058Z,2.87
2018-09-11T18:48:47.403Z,2.70
2018-09-11T18:53:50.739Z,2.67
2018-09-11T18:58:54.072Z,4.33
2018-09-11T19:03:57.442Z,2.47
2018-09-11T19:09:00.827Z,2.57
2018-09-11T19:14:04.158Z,3.13
2018-09-11T19:19:07.515Z,4.00
2018-09-11T19:24:11.604Z,4.37
2018-09-11T19:29:14.936Z,2.87
2018-09-11T19:34:18.275Z,3.37
2018-09-11T19:39:22.373Z,3.27
2018-09-11T19:44:25.706Z,4.50
2018-09-11T19:49:29.040Z,3.50
2018-09-11T19:54:32.393Z,3.33
2018-09-11T19:59:36.498Z,3.83
2018-09-11T20:04:59.639Z,3.40
2018-09-11T20:10:02.891Z,3.83
2018-09-11T20:15:06.227Z,4.50
2018-09-11T20:20:09.549Z,6.27
2018-09-11T20:25:12.961Z,7.77
2018-09-11T20:30:16.668Z,10.60
2018-09-11T20:35:21.018Z,4.63
2018-09-11T20:40:24.359Z,4.30
2018-09-11T20:45:29.692Z,3.80
2018-09-11T20:50:33.015Z,4.10
2018-09-11T20:55:36.359Z,4.20
2018-09-11T21:00:39.686Z,3.80
2018-09-11T21:05:43.014Z,3.73
2018-09-11T21:10:46.343Z,3.73
2018-09-11T21:15:49.678Z,3.80
2018-09-11T21:20:53.055Z,3.27
2018-09-11T21:26:00.380Z,3.00
2018-09-11T21:31:03.742Z,2.93
2018-09-11T21:36:25.247Z,3.73
2018-09-11T21:41:28.951Z,3.93
2018-09-11T21:46:38.093Z,3.63
2018-09-11T21:51:41.426Z,3.77
2018-09-11T21:56:44.759Z,3.87
2018-09-11T22:01:48.866Z,3.53
2018-09-11T22:06:52.195Z,3.63
2018-09-11T22:11:55.554Z,3.10
2018-09-11T22:16:58.888Z,4.10
2018-09-11T22:22:02.219Z,3.80
2018-09-11T22:27:05.547Z,3.53
2018-09-11T22:32:08.875Z,3.80
2018-09-11T22:37:12.991Z,4.07
2018-09-11T22:42:16.325Z,4.67
2018-09-11T22:47:20.417Z,4.47
2018-09-11T22:52:23.742Z,3.83
2018-09-11T22:57:27.075Z,3.60
2018-09-11T23:02:31.174Z,4.20
2018-09-11T23:07:34.515Z,3.63
2018-09-11T23:12:37.843Z,3.53
